sensor_id;sensor_type;location;lat;lon;timestamp;temperature;humidity
34873;DHT22;21084;51.098;14.506;2023-03-01T00:01:43;-6.40;99.90
34873;DHT22;21084;51.098;14.506;2023-03-01T00:04:11;-6.40;99.90
34873;DHT22;21084;51.098;14.506;2023-03-01T00:06:40;-6.40;99.90
34873;DHT22;21084;51.098;14.506;2023-03-01T00:09:10;-6.40;99.90
34873;DHT22;21084;51.098;14.506;2023-03-01T00:11:38;-6.40;99.90
34873;DHT22;21084;51.098;14.506;2023-03-01T00:14:07;-6.50;99.90
34873;DHT22;21084;51.098;14.506;2023-03-01T00:16:39;-6.50;99.90
34873;DHT22;21084;51.098;14.506;2023-03-01T00:19:11;-6.50;99.90
34873;DHT22;21084;51.098;14.506;2023-03-01T00:21:40;-6.50;99.90
34873;DHT22;21084;51.098;14.506;2023-03-01T00:24:10;-6.60;99.90
34873;DHT22;21084;51.098;14.506;2023-03-01T00:26:39;-6.60;99.90
34873;DHT22;21084;51.098;14.506;2023-03-01T00:29:07;-6.70;99.90
34873;DHT22;21084;51.098;14.506;2023-03-01T00:31:37;-6.70;99.90
34873;DHT22;21084;51.098;14.506;2023-03-01T00:34:06;-6.60;99.90
34873;DHT22;21084;51.098;14.506;2023-03-01T00:36:36;-6.70;99.90
34873;DHT22;21084;51.098;14.506;2023-03-01T00:39:10;-6.70;99.90
34873;DHT22;21084;51.098;14.506;2023-03-01T00:41:39;-6.70;99.90
34873;DHT22;21084;51.098;14.506;2023-03-01T00:44:09;-6.70;99.90
34873;DHT22;21084;51.098;14.506;2023-03-01T00:46:39;-6.70;99.90
34873;DHT22;21084;51.098;14.506;2023-03-01T00:49:07;-6.70;99.90
34873;DHT22;21084;51.098;14.506;2023-03-01T00:51:36;-6.70;99.90
34873;DHT22;21084;51.098;14.506;2023-03-01T00:54:07;-6.70;99.90
34873;DHT22;21084;51.098;14.506;2023-03-01T00:56:36;-6.70;99.90
34873;DHT22;21084;51.098;14.506;2023-03-01T00:59:05;-6.70;99.90
34873;DHT22;21084;51.098;14.506;2023-03-01T01:01:33;-6.70;99.90
34873;DHT22;21084;51.098;14.506;2023-03-01T01:04:08;-6.80;99.90
34873;DHT22;21084;51.098;14.506;2023-03-01T01:06:39;-6.80;99.90
34873;DHT22;21084;51.098;14.506;2023-03-01T01:09:11;-6.80;99.90
34873;DHT22;21084;51.098;14.506;2023-03-01T01:11:45;-6.90;99.90
34873;DHT22;21084;51.098;14.506;2023-03-01T01:14:13;-6.90;99.90
34873;DHT22;21084;51.098;14.506;2023-03-01T01:16:42;-6.90;99.90
34873;DHT22;21084;51.098;14.506;2023-03-01T01:19:13;-7.00;99.90
34873;DHT22;21084;51.098;14.506;2023-03-01T01:21:42;-6.90;99.90
34873;DHT22;21084;51.098;14.506;2023-03-01T01:24:11;-7.00;99.90
34873;DHT22;21084;51.098;14.506;2023-03-01T01:26:41;-7.00;99.90
34873;DHT22;21084;51.098;14.506;2023-03-01T01:29:10;-7.10;99.90
34873;DHT22;21084;51.098;14.506;2023-03-01T01:31:40;-7.10;99.90
34873;DHT22;21084;51.098;14.506;2023-03-01T01:34:15;-7.10;99.90
34873;DHT22;21084;51.098;14.506;2023-03-01T01:36:46;-7.20;99.90
34873;DHT22;21084;51.098;14.506;2023-03-01T01:39:15;-7.20;99.90
34873;DHT22;21084;51.098;14.506;2023-03-01T01:41:44;-7.20;99.90
34873;DHT22;21084;51.098;14.506;2023-03-01T01:44:16;-7.20;99.90
34873;DHT22;21084;51.098;14.506;2023-03-01T01:46:47;-7.30;99.90
34873;DHT22;21084;51.098;14.506;2023-03-01T01:49:27;-7.30;99.90
34873;DHT22;21084;51.098;14.506;2023-03-01T01:52:02;-7.30;99.90
34873;DHT22;21084;51.098;14.506;2023-03-01T01:54:40;-7.30;99.90
34873;DHT22;21084;51.098;14.506;2023-03-01T01:57:13;-7.30;99.90
34873;DHT22;21084;51.098;14.506;2023-03-01T01:59:45;-7.30;99.90
34873;DHT22;21084;51.098;14.506;2023-03-01T02:02:15;-7.40;99.90
34873;DHT22;21084;51.098;14.506;2023-03-01T02:04:46;-7.50;99.90
34873;DHT22;21084;51.098;14.506;2023-03-01T02:07:18;-7.50;99.90
34873;DHT22;21084;51.098;14.506;2023-03-01T02:09:49;-7.60;99.90
34873;DHT22;21084;51.098;14.506;2023-03-01T02:12:20;-7.60;99.90
34873;DHT22;21084;51.098;14.506;2023-03-01T02:14:49;-7.60;99.90
34873;DHT22;21084;51.098;14.506;2023-03-01T02:17:18;-7.70;99.90
34873;DHT22;21084;51.098;14.506;2023-03-01T02:19:58;-7.70;99.90
34873;DHT22;21084;51.098;14.506;2023-03-01T02:22:31;-7.70;99.90
34873;DHT22;21084;51.098;14.506;2023-03-01T02:25:11;-7.70;99.90
34873;DHT22;21084;51.098;14.506;2023-03-01T02:27:48;-7.80;99.90
34873;DHT22;21084;51.098;14.506;2023-03-01T02:30:21;-7.80;99.90
34873;DHT22;21084;51.098;14.506;2023-03-01T02:32:52;-7.80;99.90
34873;DHT22;21084;51.098;14.506;2023-03-01T02:35:22;-7.70;99.90
34873;DHT22;21084;51.098;14.506;2023-03-01T02:37:51;-7.70;99.90
34873;DHT22;21084;51.098;14.506;2023-03-01T02:40:19;-7.80;99.90
34873;DHT22;21084;51.098;14.506;2023-03-01T02:42:49;-7.80;99.90
34873;DHT22;21084;51.098;14.506;2023-03-01T02:45:20;-7.90;99.90
34873;DHT22;21084;51.098;14.506;2023-03-01T02:47:49;-7.80;99.90
34873;DHT22;21084;51.098;14.506;2023-03-01T02:50:34;-7.80;99.90
34873;DHT22;21084;51.098;14.506;2023-03-01T02:53:14;-7.80;99.90
34873;DHT22;21084;51.098;14.506;2023-03-01T02:55:44;-7.80;99.90
34873;DHT22;21084;51.098;14.506;2023-03-01T02:58:13;-7.80;99.90
34873;DHT22;21084;51.098;14.506;2023-03-01T03:00:43;-7.70;99.90
34873;DHT22;21084;51.098;14.506;2023-03-01T03:03:15;-7.80;99.90
34873;DHT22;21084;51.098;14.506;2023-03-01T03:05:44;-7.80;99.90
34873;DHT22;21084;51.098;14.506;2023-03-01T03:08:13;-7.90;99.90
34873;DHT22;21084;51.098;14.506;2023-03-01T03:10:43;-7.90;99.90
34873;DHT22;21084;51.098;14.506;2023-03-01T03:13:13;-7.90;99.90
34873;DHT22;21084;51.098;14.506;2023-03-01T03:15:43;-7.90;99.90
34873;DHT22;21084;51.098;14.506;2023-03-01T03:18:14;-7.90;99.90
34873;DHT22;21084;51.098;14.506;2023-03-01T03:20:43;-7.90;99.90
34873;DHT22;21084;51.098;14.506;2023-03-01T03:23:13;-8.00;99.90
34873;DHT22;21084;51.098;14.506;2023-03-01T03:25:42;-8.00;99.90
34873;DHT22;21084;51.098;14.506;2023-03-01T03:28:10;-8.10;99.90
34873;DHT22;21084;51.098;14.506;2023-03-01T03:30:40;-8.10;99.90
34873;DHT22;21084;51.098;14.506;2023-03-01T03:33:11;-8.10;99.90
34873;DHT22;21084;51.098;14.506;2023-03-01T03:35:42;-8.10;99.90
34873;DHT22;21084;51.098;14.506;2023-03-01T03:38:13;-8.20;99.90
34873;DHT22;21084;51.098;14.506;2023-03-01T03:40:45;-8.20;99.90
34873;DHT22;21084;51.098;14.506;2023-03-01T03:43:16;-8.20;99.90
34873;DHT22;21084;51.098;14.506;2023-03-01T03:45:45;-8.30;99.90
34873;DHT22;21084;51.098;14.506;2023-03-01T03:48:15;-8.30;99.90
34873;DHT22;21084;51.098;14.506;2023-03-01T03:50:48;-8.30;99.90
34873;DHT22;21084;51.098;14.506;2023-03-01T03:53:17;-8.30;99.90
34873;DHT22;21084;51.098;14.506;2023-03-01T03:55:46;-8.20;99.90
34873;DHT22;21084;51.098;14.506;2023-03-01T03:58:17;-8.20;99.90
34873;DHT22;21084;51.098;14.506;2023-03-01T04:00:49;-8.20;99.90
34873;DHT22;21084;51.098;14.506;2023-03-01T04:03:20;-8.30;99.90
34873;DHT22;21084;51.098;14.506;2023-03-01T04:05:50;-8.30;99.90
34873;DHT22;21084;51.098;14.506;2023-03-01T04:08:21;-8.30;99.90
34873;DHT22;21084;51.098;14.506;2023-03-01T04:10:51;-8.30;99.90
34873;DHT22;21084;51.098;14.506;2023-03-01T04:13:21;-8.40;99.90
34873;DHT22;21084;51.098;14.506;2023-03-01T04:15:53;-8.50;99.90
34873;DHT22;21084;51.098;14.506;2023-03-01T04:18:23;-8.50;99.90
34873;DHT22;21084;51.098;14.506;2023-03-01T04:20:53;-8.50;99.90
34873;DHT22;21084;51.098;14.506;2023-03-01T04:23:23;-8.50;99.90
34873;DHT22;21084;51.098;14.506;2023-03-01T04:25:54;-8.50;99.90
34873;DHT22;21084;51.098;14.506;2023-03-01T04:28:27;-8.60;99.90
34873;DHT22;21084;51.098;14.506;2023-03-01T04:30:58;-8.60;99.90
34873;DHT22;21084;51.098;14.506;2023-03-01T04:33:28;-8.60;99.90
34873;DHT22;21084;51.098;14.506;2023-03-01T04:35:57;-8.60;99.90
34873;DHT22;21084;51.098;14.506;2023-03-01T04:38:26;-8.60;99.90
34873;DHT22;21084;51.098;14.506;2023-03-01T04:40:54;-8.60;99.90
34873;DHT22;21084;51.098;14.506;2023-03-01T04:43:23;-8.60;99.90
34873;DHT22;21084;51.098;14.506;2023-03-01T04:45:51;-8.60;99.90
34873;DHT22;21084;51.098;14.506;2023-03-01T04:48:20;-8.60;99.90
34873;DHT22;21084;51.098;14.506;2023-03-01T04:50:50;-8.60;99.90
34873;DHT22;21084;51.098;14.506;2023-03-01T04:53:19;-8.60;99.90
34873;DHT22;21084;51.098;14.506;2023-03-01T04:55:47;-8.60;99.90
34873;DHT22;21084;51.098;14.506;2023-03-01T04:58:16;-8.60;99.90
34873;DHT22;21084;51.098;14.506;2023-03-01T05:00:44;-8.70;99.90
34873;DHT22;21084;51.098;14.506;2023-03-01T05:03:13;-8.70;99.90
34873;DHT22;21084;51.098;14.506;2023-03-01T05:05:46;-8.70;99.90
34873;DHT22;21084;51.098;14.506;2023-03-01T05:08:17;-8.70;99.90
34873;DHT22;21084;51.098;14.506;2023-03-01T05:10:50;-8.70;99.90
34873;DHT22;21084;51.098;14.506;2023-03-01T05:13:18;-8.80;99.90
34873;DHT22;21084;51.098;14.506;2023-03-01T05:15:53;-8.80;99.90
34873;DHT22;21084;51.098;14.506;2023-03-01T05:18:22;-8.80;99.90
34873;DHT22;21084;51.098;14.506;2023-03-01T05:20:53;-8.80;99.90
34873;DHT22;21084;51.098;14.506;2023-03-01T05:23:24;-8.70;99.90
34873;DHT22;21084;51.098;14.506;2023-03-01T05:25:53;-8.70;99.90
34873;DHT22;21084;51.098;14.506;2023-03-01T05:28:22;-8.70;99.90
